Aquadale, North Carolina
Current Conditions -  °F | °C
As of 1:55 PM on Friday 31 Oct 2014 (Local Time) from KVUJ Reporting Station
Broken Clouds Broken Clouds  
Wind Chill: 60°   Ceiling: 4200
Heat Index: 60°   Visibility: 10mi
Dew Point: 43°   Wind: 5mph
Humidity: 54%   Direction: 340°NNW
Pressure: 29.89"   Gusts: NA
Location:  35.2152°N, 80.1663°W
Report Text: KVUJ 311755Z AUTO 34004KT 10SM BKN042 16/06 A2989 RMK AO2 T01560062 10157 20050
Loading
Personal Weather Stations






























Interactive Weather Map
Tropical Storm Tracking
New forecast layout! Learn more

10-Day Weather Forecast

Advertisements
Track Severe Weather on mobile